Terminal Aerodrome Forecast
Issued by NWS Jacksonville, FL

Home | Current Version | Previous Version | Text Only | Print | Product List | Glossary On
Versions: 1 2 3 4 5 6 7 8 9 10 11 12 13 14 15 16 17 18 19
570
FTUS42 KJAX 082322
TAFJAX
TAF
KJAX 082322Z 0900/0924 33009KT P6SM SCT120 OVC200
     FM091300 36011KT P6SM BKN120=

USA.gov is the U.S. government's official web portal to all federal, state and local government web resources and services.